Time;durP1;ratioP1;P1;durP2;ratioP2;P2;SDS_P1;SDS_P2;PMS_P1;PMS_P2;Temp;Humidity;BMP_temperature;BMP_pressure;BME280_temperature;BME280_humidity;BME280_pressure;Samples;Min_cycle;Max_cycle;Signal;HPM_P1;HPM_P2
2023/01/14 00:01:42;;;;;;;23.10;14.55;;;;;;;3.58;100.00;100798.84;5006104;28;20521;-76
2023/01/14 00:04:08;;;;;;;32.00;18.38;;;;;;;3.49;100.00;100795.03;5006539;28;20033;-78
2023/01/14 00:06:35;;;;;;;26.02;14.45;;;;;;;4.36;100.00;100901.84;5004235;28;20375;-76
2023/01/14 00:09:07;;;;;;;25.80;16.02;;;;;;;4.10;100.00;100880.22;5006524;28;20069;-75
2023/01/14 00:11:49;;;;;;;32.60;18.27;;;;;;;3.58;100.00;100790.16;5004970;28;20077;-78
2023/01/14 00:14:28;;;;;;;30.90;17.48;;;;;;;4.31;100.00;100892.13;4998603;28;20057;-76
2023/01/14 00:16:55;;;;;;;31.55;17.27;;;;;;;4.43;100.00;100921.13;5001645;28;20066;-76
2023/01/14 00:19:21;;;;;;;24.88;17.45;;;;;;;3.63;100.00;100790.31;5002859;28;20057;-76
2023/01/14 00:21:46;;;;;;;23.85;16.17;;;;;;;4.16;100.00;100901.16;5005992;28;20053;-76
2023/01/14 00:24:14;;;;;;;23.90;15.73;;;;;;;3.98;100.00;100927.41;4996386;28;20451;-76
2023/01/14 00:26:40;;;;;;;25.05;18.30;;;;;;;3.57;100.00;100810.03;5005948;28;20042;-76
2023/01/14 00:29:13;;;;;;;30.20;17.13;;;;;;;3.49;100.00;100780.38;4998041;28;20394;-76
2023/01/14 00:31:38;;;;;;;26.63;16.67;;;;;;;4.26;100.00;100924.84;4999344;28;20145;-76
2023/01/14 00:34:04;;;;;;;32.65;17.52;;;;;;;3.94;100.00;100914.28;4997116;28;20052;-77
2023/01/14 00:36:29;;;;;;;28.48;15.55;;;;;;;3.33;100.00;100793.63;5004827;28;20021;-77
2023/01/14 00:38:55;;;;;;;24.02;17.20;;;;;;;4.24;100.00;100911.84;5001078;28;20458;-77
2023/01/14 00:41:26;;;;;;;29.15;16.15;;;;;;;4.22;100.00;100893.59;5004631;28;20449;-76
2023/01/14 00:43:59;;;;;;;29.52;16.83;;;;;;;3.53;100.00;100779.63;5000637;28;20057;-77
2023/01/14 00:46:27;;;;;;;26.67;15.38;;;;;;;4.02;100.00;100847.91;5003846;28;20064;-77
2023/01/14 00:48:53;;;;;;;25.65;15.48;;;;;;;3.53;100.00;100812.47;5004231;28;20156;-76
2023/01/14 00:51:19;;;;;;;24.95;17.00;;;;;;;3.89;100.00;100864.78;5011380;28;20155;-77
2023/01/14 00:53:45;;;;;;;30.15;18.27;;;;;;;4.10;100.00;100906.19;5002397;28;20069;-78
2023/01/14 00:56:13;;;;;;;27.88;16.98;;;;;;;4.19;100.00;100906.50;5003479;28;20042;-77
2023/01/14 00:58:38;;;;;;;26.20;16.48;;;;;;;4.23;100.00;100899.66;5000988;28;20113;-76
2023/01/14 01:01:04;;;;;;;29.63;16.25;;;;;;;4.29;100.00;100906.81;5004749;28;20445;-78
2023/01/14 01:03:31;;;;;;;27.80;17.70;;;;;;;4.17;100.00;100865.72;5006332;28;20026;-76
2023/01/14 01:05:56;;;;;;;29.55;17.13;;;;;;;4.39;100.00;100907.13;5003463;28;20056;-77
2023/01/14 01:08:22;;;;;;;35.28;17.55;;;;;;;4.19;100.00;100909.09;5004226;28;20490;-76
2023/01/14 01:10:51;;;;;;;32.08;18.45;;;;;;;3.69;100.00;100785.34;5002325;28;20159;-76
2023/01/14 01:13:17;;;;;;;27.25;17.45;;;;;;;3.55;100.00;100769.31;5002445;28;20060;-78
2023/01/14 01:15:43;;;;;;;32.13;18.58;;;;;;;4.19;100.00;100879.63;5006985;28;20095;-77
2023/01/14 01:18:10;;;;;;;31.17;20.35;;;;;;;3.69;100.00;100793.13;5005039;28;20066;-78
2023/01/14 01:20:36;;;;;;;28.90;18.45;;;;;;;3.53;100.00;100752.81;5008205;28;20042;-78
2023/01/14 01:23:03;;;;;;;31.40;18.17;;;;;;;3.79;100.00;100809.09;5004320;28;20490;-78
2023/01/14 01:25:29;;;;;;;32.85;19.52;;;;;;;3.51;100.00;100767.44;4998397;28;20038;-77
2023/01/14 01:27:55;;;;;;;34.65;18.23;;;;;;;4.21;100.00;100896.13;5001161;28;20087;-79
2023/01/14 01:30:21;;;;;;;31.85;15.88;;;;;;;3.85;100.00;100849.94;4998358;28;20042;-76
2023/01/14 01:32:47;;;;;;;27.20;18.55;;;;;;;3.47;100.00;100779.44;5008602;28;20409;-77
2023/01/14 01:35:12;;;;;;;31.17;18.83;;;;;;;4.20;100.00;100871.00;4999220;28;20064;-77
2023/01/14 01:37:38;;;;;;;26.33;17.27;;;;;;;4.19;100.00;100892.59;5010524;28;20041;-76
2023/01/14 01:40:04;;;;;;;25.40;15.93;;;;;;;4.20;100.00;100858.03;5007178;28;20041;-77
2023/01/14 01:42:33;;;;;;;30.52;16.98;;;;;;;3.61;100.00;100758.28;5008092;28;20521;-77
2023/01/14 01:45:22;;;;;;;29.52;16.75;;;;;;;4.27;100.00;100877.28;4999149;28;20054;-76
2023/01/14 01:47:53;;;;;;;28.85;18.92;;;;;;;3.90;100.00;100793.84;4997470;28;20458;-76
2023/01/14 01:50:18;;;;;;;36.17;17.92;;;;;;;3.64;100.00;100751.47;5004058;28;20050;-75
2023/01/14 01:52:45;;;;;;;30.17;18.17;;;;;;;4.19;100.00;100846.75;5000540;28;20056;-75
2023/01/14 01:55:12;;;;;;;32.35;16.13;;;;;;;4.15;100.00;100867.38;4995128;28;20066;-77
2023/01/14 01:57:38;;;;;;;29.75;16.60;;;;;;;4.18;100.00;100852.75;5002706;28;20138;-77
2023/01/14 02:00:07;;;;;;;31.67;16.00;;;;;;;4.23;100.00;100863.31;5006189;28;20128;-76
2023/01/14 02:02:33;;;;;;;25.60;15.73;;;;;;;4.30;100.00;100854.00;5005292;28;20057;-76
2023/01/14 02:04:59;;;;;;;34.08;16.92;;;;;;;3.34;100.00;100713.28;5007444;28;20042;-76
2023/01/14 02:07:25;;;;;;;34.17;18.42;;;;;;;4.21;100.00;100859.78;5004056;28;20050;-75
2023/01/14 02:10:11;;;;;;;36.22;22.13;;;;;;;3.67;100.00;100748.09;5007617;28;20111;-76
2023/01/14 02:12:39;;;;;;;27.90;17.08;;;;;;;4.28;100.00;100851.34;5004994;28;20074;-76
2023/01/14 02:15:13;;;;;;;29.63;16.65;;;;;;;4.20;100.00;100850.22;5003571;28;20054;-76
2023/01/14 02:17:38;;;;;;;35.10;19.30;;;;;;;4.20;100.00;100847.63;5004072;28;20042;-77
2023/01/14 02:20:07;;;;;;;30.40;17.70;;;;;;;4.25;100.00;100851.25;5000595;28;20680;-76
2023/01/14 02:22:44;;;;;;;32.13;18.58;;;;;;;4.25;100.00;100840.88;5003922;28;20104;-76
2023/01/14 02:25:10;;;;;;;34.03;16.85;;;;;;;4.23;100.00;100848.59;5002991;28;20147;-76
2023/01/14 02:27:35;;;;;;;24.88;16.02;;;;;;;4.25;100.00;100838.28;5008208;28;20317;-77
2023/01/14 02:30:03;;;;;;;26.70;17.80;;;;;;;4.19;100.00;100831.19;4997039;28;20154;-76
2023/01/14 02:32:46;;;;;;;44.88;19.35;;;;;;;4.10;100.00;100802.31;5005006;28;20510;-78
2023/01/14 02:35:18;;;;;;;33.75;20.27;;;;;;;4.21;100.00;100850.28;5009814;28;20117;-75
2023/01/14 02:37:46;;;;;;;29.27;18.25;;;;;;;4.27;100.00;100851.31;5000438;28;20054;-76
2023/01/14 02:40:37;;;;;;;35.08;20.70;;;;;;;3.96;100.00;100773.28;5002170;28;20495;-75
2023/01/14 02:46:06;;;;;;;26.10;13.77;;;;;;;4.19;100.00;100813.00;5009803;28;20040;-77
2023/01/14 02:48:35;;;;;;;31.05;17.30;;;;;;;4.31;100.00;100833.28;5018887;28;20144;-76
2023/01/14 02:51:01;;;;;;;27.38;16.90;;;;;;;4.00;100.00;100841.75;5004791;28;20050;-76
2023/01/14 02:53:27;;;;;;;30.88;19.77;;;;;;;4.22;100.00;100828.66;5007225;28;20037;-77
2023/01/14 02:55:52;;;;;;;25.85;16.50;;;;;;;4.03;100.00;100797.75;5001821;28;20042;-77
2023/01/14 02:58:47;;;;;;;22.10;14.07;;;;;;;3.59;100.00;100711.50;5001557;28;20068;-76
2023/01/14 03:01:26;;;;;;;27.38;15.77;;;;;;;4.31;100.00;100837.56;5005651;28;20103;-76
2023/01/14 03:03:58;;;;;;;26.45;16.20;;;;;;;4.14;100.00;100830.13;5013737;28;20032;-75
2023/01/14 03:06:41;;;;;;;28.65;15.70;;;;;;;4.25;100.00;100838.28;4999040;28;20197;-75
2023/01/14 03:09:39;;;;;;;31.00;16.70;;;;;;;4.15;100.00;100831.03;5009319;28;20062;-76
2023/01/14 03:12:07;;;;;;;31.25;17.00;;;;;;;3.72;100.00;100834.75;5008044;28;20103;-75
2023/01/14 03:14:47;;;;;;;28.27;16.70;;;;;;;3.28;100.00;100722.59;5007943;28;20054;-76
2023/01/14 03:17:36;;;;;;;28.13;17.17;;;;;;;4.09;100.00;100820.41;4999063;28;20061;-75
2023/01/14 03:20:04;;;;;;;29.38;17.92;;;;;;;4.09;100.00;100823.91;5007603;28;20493;-78
2023/01/14 03:22:32;;;;;;;24.02;14.18;;;;;;;4.13;100.00;100786.81;5010262;28;20509;-77
2023/01/14 03:25:00;;;;;;;33.15;18.33;;;;;;;4.10;100.00;100791.03;5002373;28;20034;-78
2023/01/14 03:27:31;;;;;;;23.88;16.05;;;;;;;3.68;100.00;100691.06;5009857;28;20107;-76
2023/01/14 03:30:05;;;;;;;29.30;17.67;;;;;;;4.32;100.00;100816.84;5008739;28;20596;-76
2023/01/14 03:32:40;;;;;;;33.30;18.27;;;;;;;4.19;100.00;100820.78;5002515;28;20042;-75
2023/01/14 03:35:20;;;;;;;32.72;19.13;;;;;;;4.23;100.00;100832.13;5002155;28;20116;-76
2023/01/14 03:38:01;;;;;;;33.83;17.60;;;;;;;4.33;100.00;100809.94;5006086;28;20050;-76
2023/01/14 03:40:29;;;;;;;28.63;16.50;;;;;;;4.22;100.00;100820.88;5000013;28;20049;-76
2023/01/14 03:43:04;;;;;;;24.90;16.05;;;;;;;4.08;100.00;100784.91;5013864;28;20044;-77
2023/01/14 03:45:36;;;;;;;36.47;19.25;;;;;;;3.64;100.00;100750.59;5006898;28;20053;-78
2023/01/14 03:48:03;;;;;;;33.28;19.52;;;;;;;4.15;100.00;100808.53;4994631;28;20050;-77
2023/01/14 03:50:39;;;;;;;29.17;17.60;;;;;;;4.04;100.00;100814.19;5003665;28;20115;-77
2023/01/14 03:53:25;;;;;;;29.30;18.95;;;;;;;4.31;100.00;100829.78;5000292;28;20046;-76
2023/01/14 03:56:03;;;;;;;29.95;19.02;;;;;;;4.25;100.00;100827.00;5000982;28;20046;-76
2023/01/14 03:58:41;;;;;;;25.73;15.88;;;;;;;3.90;100.00;100754.91;4999017;28;20569;-75
2023/01/14 04:01:13;;;;;;;36.28;16.52;;;;;;;4.18;100.00;100798.22;5004756;28;20034;-76
2023/01/14 04:03:40;;;;;;;29.02;16.45;;;;;;;4.11;100.00;100800.59;5008995;28;20555;-77
2023/01/14 04:06:06;;;;;;;28.58;16.08;;;;;;;4.13;100.00;100801.53;5002120;28;20050;-77
2023/01/14 04:08:32;;;;;;;32.97;18.05;;;;;;;4.35;100.00;100832.53;5002114;28;20140;-76
2023/01/14 04:10:57;;;;;;;29.77;17.50;;;;;;;4.19;100.00;100828.56;5005988;28;20064;-75
2023/01/14 04:16:07;;;;;;;28.30;17.88;;;;;;;3.52;100.00;100731.19;4995360;28;20092;-76
2023/01/14 04:18:32;;;;;;;27.08;15.85;;;;;;;4.07;100.00;100835.06;4995693;28;20053;-77
2023/01/14 04:20:58;;;;;;;27.58;15.68;;;;;;;3.38;100.00;100714.28;5000712;28;20053;-75
2023/01/14 04:23:23;;;;;;;29.20;16.92;;;;;;;3.73;100.00;100810.59;4999958;28;20608;-77
2023/01/14 04:25:56;;;;;;;25.95;17.13;;;;;;;3.06;100.00;100664.78;4996616;28;20085;-77
2023/01/14 04:28:22;;;;;;;25.67;15.80;;;;;;;3.87;100.00;100837.00;5000851;28;20076;-77
2023/01/14 04:30:48;;;;;;;23.20;14.70;;;;;;;4.02;100.00;100833.19;5001324;28;20545;-77
2023/01/14 04:33:14;;;;;;;28.42;15.05;;;;;;;3.33;100.00;100714.13;5006243;28;20059;-77
2023/01/14 04:35:39;;;;;;;30.27;16.60;;;;;;;3.95;100.00;100823.44;5001965;28;20033;-75
2023/01/14 04:38:05;;;;;;;22.60;15.70;;;;;;;3.96;100.00;100814.84;4996287;28;20050;-78
2023/01/14 04:40:30;;;;;;;32.08;17.98;;;;;;;3.33;100.00;100716.72;4998334;28;20168;-76
2023/01/14 04:42:56;;;;;;;30.65;19.92;;;;;;;3.54;100.00;100739.91;5000791;28;20034;-75
2023/01/14 04:45:21;;;;;;;26.25;17.05;;;;;;;3.35;100.00;100725.44;4996976;28;20394;-78
2023/01/14 04:47:50;;;;;;;32.92;18.67;;;;;;;3.33;100.00;100734.00;5000652;28;20116;-78
2023/01/14 04:50:30;;;;;;;25.13;16.08;;;;;;;3.54;100.00;100764.97;5003242;28;20405;-75
2023/01/14 04:53:06;;;;;;;27.38;18.02;;;;;;;3.96;100.00;100845.13;4994761;28;20078;-78
2023/01/14 04:55:33;;;;;;;26.40;14.93;;;;;;;3.35;100.00;100763.47;5000155;28;20054;-76
2023/01/14 04:57:59;;;;;;;31.58;17.15;;;;;;;3.83;100.00;100853.31;5009975;28;20029;-76
2023/01/14 05:00:24;;;;;;;27.15;16.73;;;;;;;3.93;100.00;100866.66;5004178;28;20528;-78
2023/01/14 05:02:50;;;;;;;32.47;18.60;;;;;;;4.01;100.00;100877.31;4998079;28;20773;-78
2023/01/14 05:05:15;;;;;;;34.08;18.23;;;;;;;3.34;100.00;100751.31;5002856;28;20221;-77
2023/01/14 05:07:41;;;;;;;29.95;17.30;;;;;;;3.37;100.00;100762.69;5000272;28;20042;-76
2023/01/14 05:10:06;;;;;;;29.92;18.08;;;;;;;3.49;100.00;100782.06;5002148;28;20049;-77
2023/01/14 05:12:32;;;;;;;29.85;15.45;;;;;;;4.04;100.00;100876.53;4999225;28;20038;-76
2023/01/14 05:14:57;;;;;;;24.98;17.15;;;;;;;3.05;100.00;100722.66;4999523;28;20061;-77
2023/01/14 05:17:23;;;;;;;32.65;18.15;;;;;;;3.05;100.00;100756.34;5009530;28;20052;-77
2023/01/14 05:19:48;;;;;;;30.95;17.70;;;;;;;3.25;100.00;100762.22;4998112;28;20509;-75
2023/01/14 05:22:14;;;;;;;34.10;16.63;;;;;;;3.23;100.00;100760.41;5002402;28;20061;-75
2023/01/14 05:24:39;;;;;;;33.72;18.48;;;;;;;3.87;100.00;100882.00;5001939;28;20041;-75
2023/01/14 05:27:05;;;;;;;38.58;21.77;;;;;;;3.98;100.00;100871.97;5001608;28;20233;-76
2023/01/14 05:29:30;;;;;;;28.65;17.52;;;;;;;3.84;100.00;100874.13;4995713;28;20045;-76
2023/01/14 05:31:56;;;;;;;32.28;17.83;;;;;;;3.74;100.00;100812.34;5001451;28;20053;-76
2023/01/14 05:34:21;;;;;;;31.92;18.80;;;;;;;3.86;100.00;100874.16;5002561;28;20046;-76
2023/01/14 05:36:47;;;;;;;36.35;18.88;;;;;;;3.11;100.00;100745.31;5000150;28;20034;-76
2023/01/14 05:39:12;;;;;;;37.20;20.85;;;;;;;4.02;100.00;100873.84;5005184;28;20482;-76
2023/01/14 05:45:37;;;;;;;32.80;20.05;;;;;;;3.23;100.00;100743.16;5005214;28;20109;-75
2023/01/14 05:47:07;;;;;;;30.42;17.10;;;;;;;3.36;100.00;100773.00;5001682;28;20061;-77
2023/01/14 05:49:33;;;;;;;28.20;18.02;;;;;;;3.69;100.00;100876.19;4999423;28;20053;-77
2023/01/14 05:51:59;;;;;;;30.33;19.35;;;;;;;3.84;100.00;100862.84;4999858;28;20034;-76
2023/01/14 05:54:25;;;;;;;28.20;16.45;;;;;;;3.14;100.00;100730.75;4998100;28;20030;-76
2023/01/14 05:56:50;;;;;;;34.10;18.65;;;;;;;3.19;100.00;100735.22;5001229;28;20045;-74
2023/01/14 05:59:16;;;;;;;31.30;18.67;;;;;;;3.86;100.00;100858.59;5001474;28;20080;-75
2023/01/14 06:07:17;;;;;;;32.80;17.92;;;;;;;3.94;100.00;100852.84;5001077;28;20053;-76
2023/01/14 06:09:42;;;;;;;27.67;17.90;;;;;;;4.05;100.00;100871.38;5006885;28;20042;-76
2023/01/14 06:12:08;;;;;;;25.55;16.55;;;;;;;3.83;100.00;100866.28;5000801;28;20509;-77
2023/01/14 06:14:34;;;;;;;34.15;20.05;;;;;;;3.10;100.00;100720.22;4994800;28;20050;-77
2023/01/14 06:17:04;;;;;;;35.40;18.67;;;;;;;3.27;100.00;100738.94;5003602;28;20115;-76
2023/01/14 06:19:30;;;;;;;31.25;18.60;;;;;;;3.91;100.00;100860.53;5006325;28;20050;-75
2023/01/14 06:21:55;;;;;;;31.25;17.98;;;;;;;4.01;100.00;100872.97;5006380;28;20041;-76
2023/01/14 06:24:21;;;;;;;38.72;20.90;;;;;;;3.16;100.00;100752.44;5000937;28;20472;-76
2023/01/14 06:26:46;;;;;;;30.15;19.00;;;;;;;3.87;100.00;100879.41;5009855;28;20412;-75
2023/01/14 06:29:12;;;;;;;30.70;19.55;;;;;;;3.13;100.00;100770.47;5006171;28;20054;-76
2023/01/14 06:31:39;;;;;;;35.88;21.05;;;;;;;3.27;100.00;100770.94;5002619;28;20089;-76
2023/01/14 06:34:05;;;;;;;34.85;21.17;;;;;;;3.90;100.00;100857.88;5004352;28;20489;-76
2023/01/14 06:36:33;;;;;;;30.35;19.48;;;;;;;3.93;100.00;100857.97;5009845;28;20100;-76
2023/01/14 06:38:59;;;;;;;32.42;19.58;;;;;;;3.78;100.00;100842.75;5005223;28;20061;-77
2023/01/14 06:41:24;;;;;;;39.65;23.48;;;;;;;3.61;100.00;100852.56;5001666;28;20413;-77
2023/01/14 06:43:50;;;;;;;47.95;23.17;;;;;;;3.94;100.00;100851.97;5003603;28;20417;-76
2023/01/14 06:46:16;;;;;;;40.78;24.27;;;;;;;4.04;100.00;100868.72;5002237;28;20058;-76
2023/01/14 06:48:43;;;;;;;40.72;22.08;;;;;;;3.99;100.00;100871.16;5007402;28;20049;-75
2023/01/14 06:51:14;;;;;;;40.10;20.92;;;;;;;4.08;100.00;100870.59;5004594;28;20129;-75
2023/01/14 06:53:40;;;;;;;43.00;23.00;;;;;;;4.11;100.00;100871.56;5002054;28;20069;-76
2023/01/14 06:56:09;;;;;;;40.63;23.60;;;;;;;3.29;100.00;100750.25;5007366;28;20061;-77
2023/01/14 06:58:34;;;;;;;41.88;22.45;;;;;;;3.23;100.00;100730.19;5004173;28;20644;-75
2023/01/14 07:01:01;;;;;;;34.72;23.25;;;;;;;3.13;100.00;100751.44;5011875;28;20481;-77
2023/01/14 07:03:28;;;;;;;36.42;21.10;;;;;;;3.99;100.00;100869.44;5004657;28;20040;-76
2023/01/14 07:05:53;;;;;;;34.40;21.88;;;;;;;4.06;100.00;100874.84;5005180;28;20502;-75
2023/01/14 07:08:20;;;;;;;37.83;24.13;;;;;;;3.99;100.00;100877.25;4997197;28;20100;-78
2023/01/14 07:10:49;;;;;;;40.17;23.35;;;;;;;3.39;100.00;100749.75;5001904;28;20057;-75
2023/01/14 07:13:19;;;;;;;39.55;22.13;;;;;;;3.10;100.00;100759.97;4999547;28;20057;-77
2023/01/14 07:15:45;;;;;;;37.08;21.13;;;;;;;3.38;100.00;100766.16;4999336;28;20542;-76
2023/01/14 07:18:11;;;;;;;32.53;20.10;;;;;;;4.12;100.00;100893.22;5002996;28;20141;-75
2023/01/14 07:20:37;;;;;;;38.30;21.35;;;;;;;3.37;100.00;100754.00;5002440;28;20050;-81
2023/01/14 07:23:02;;;;;;;39.63;22.08;;;;;;;4.09;100.00;100886.22;4997335;28;20249;-80
2023/01/14 07:25:28;;;;;;;39.50;21.65;;;;;;;3.38;100.00;100754.06;4991577;28;20136;-79
2023/01/14 07:27:53;;;;;;;35.78;22.45;;;;;;;3.43;100.00;100772.38;4999610;28;20471;-75
2023/01/14 07:30:19;;;;;;;39.13;22.23;;;;;;;4.05;100.00;100883.47;4994352;28;20034;-77
2023/01/14 07:32:45;;;;;;;38.22;22.30;;;;;;;3.42;100.00;100767.13;4994835;28;21077;-76
2023/01/14 07:35:10;;;;;;;35.17;21.02;;;;;;;3.80;100.00;100846.28;4995195;28;20115;-77
2023/01/14 07:37:35;;;;;;;35.25;20.80;;;;;;;3.37;100.00;100765.28;5001921;28;20537;-77
2023/01/14 07:40:02;;;;;;;37.55;20.98;;;;;;;4.00;100.00;100885.91;4998386;28;20494;-75
2023/01/14 07:42:27;;;;;;;44.38;23.95;;;;;;;3.97;100.00;100899.66;4995876;28;20042;-76
2023/01/14 07:44:52;;;;;;;35.50;20.10;;;;;;;3.82;100.00;100862.81;4995790;28;20045;-76
2023/01/14 07:47:18;;;;;;;36.30;20.80;;;;;;;3.42;100.00;100796.56;4999882;28;20486;-75
2023/01/14 07:49:43;;;;;;;31.00;19.25;;;;;;;2.91;100.00;100773.13;4993517;28;20494;-75
2023/01/14 07:52:12;;;;;;;28.58;16.98;;;;;;;3.78;100.00;100879.97;5000507;28;20057;-76
2023/01/14 07:54:38;;;;;;;35.92;21.55;;;;;;;3.28;100.00;100770.13;5002795;28;20474;-76
2023/01/14 07:57:04;;;;;;;40.53;23.80;;;;;;;3.29;100.00;100771.88;4993306;28;20054;-74
2023/01/14 07:59:29;;;;;;;33.20;19.80;;;;;;;3.99;100.00;100904.91;5000839;28;20517;-78
2023/01/14 08:01:55;;;;;;;33.45;19.35;;;;;;;3.67;100.00;100889.09;5002058;28;20053;-78
2023/01/14 08:04:20;;;;;;;31.50;21.10;;;;;;;3.74;100.00;100897.97;4997082;28;20052;-75
2023/01/14 08:06:46;;;;;;;37.85;25.48;;;;;;;3.29;100.00;100787.44;5005103;28;20518;-78
2023/01/14 08:09:12;;;;;;;31.23;20.00;;;;;;;3.24;100.00;100778.63;5001712;28;20054;-76
2023/01/14 08:11:37;;;;;;;35.67;20.70;;;;;;;4.01;100.00;100905.88;5005470;28;20500;-78
2023/01/14 08:14:03;;;;;;;42.58;23.58;;;;;;;3.92;100.00;100919.41;4998831;28;20704;-77
2023/01/14 08:16:29;;;;;;;56.80;23.83;;;;;;;3.87;100.00;100913.16;4999709;28;21653;-76
2023/01/14 08:18:54;;;;;;;42.72;24.50;;;;;;;4.02;100.00;100905.00;4995368;28;20095;-76
2023/01/14 08:21:20;;;;;;;40.67;23.00;;;;;;;3.88;100.00;100868.19;5003810;28;20073;-75
2023/01/14 08:23:45;;;;;;;38.28;24.08;;;;;;;3.36;100.00;100786.84;4999086;28;20414;-76
2023/01/14 08:26:13;;;;;;;35.17;20.70;;;;;;;4.10;100.00;100911.38;5007280;28;20107;-75
2023/01/14 08:28:40;;;;;;;40.45;22.73;;;;;;;3.94;100.00;100927.25;5004149;28;20104;-76
2023/01/14 08:31:11;;;;;;;38.17;22.38;;;;;;;3.98;100.00;100927.41;5003481;28;20041;-76
2023/01/14 08:33:37;;;;;;;39.08;22.02;;;;;;;3.71;100.00;100898.75;5004261;28;20076;-77
2023/01/14 08:36:08;;;;;;;34.95;20.73;;;;;;;3.04;100.00;100780.50;5003153;28;20136;-78
2023/01/14 08:38:38;;;;;;;37.83;20.45;;;;;;;3.25;100.00;100803.72;5002204;28;20069;-79
2023/01/14 08:41:15;;;;;;;31.88;20.05;;;;;;;4.05;100.00;100919.81;4995896;28;20453;-79
2023/01/14 08:43:42;;;;;;;38.22;20.38;;;;;;;3.92;100.00;100902.94;4997150;28;20065;-77
2023/01/14 08:46:10;;;;;;;35.88;21.10;;;;;;;3.95;100.00;100916.91;4994213;28;20038;-83
2023/01/14 08:48:36;;;;;;;28.55;19.48;;;;;;;4.00;100.00;100949.13;5003241;28;20064;-82
2023/01/14 08:51:07;;;;;;;28.77;18.20;;;;;;;3.15;100.00;100828.44;5001252;28;20053;-78
2023/01/14 08:53:37;;;;;;;29.90;16.83;;;;;;;3.43;100.00;100885.63;5001299;28;20054;-77
2023/01/14 08:56:05;;;;;;;31.45;21.25;;;;;;;3.78;100.00;100892.06;4995523;28;20048;-79
2023/01/14 08:58:31;;;;;;;34.92;19.20;;;;;;;3.31;100.00;100827.28;4989943;28;20786;-79
2023/01/14 09:01:07;;;;;;;25.70;16.98;;;;;;;3.78;100.00;100916.31;5004285;28;20033;-77
2023/01/14 09:03:35;;;;;;;29.20;16.33;;;;;;;2.93;100.00;100792.19;4994121;28;20033;-77
2023/01/14 09:06:03;;;;;;;26.75;17.98;;;;;;;3.80;100.00;100929.34;4997725;28;20051;-81
2023/01/14 09:17:05;;;;;;;22.83;15.18;;;;;;;3.31;100.00;100837.66;4996792;28;20064;-74
2023/01/14 09:19:35;;;;;;;24.80;14.07;;;;;;;3.42;100.00;100913.28;4994699;28;20049;-73
2023/01/14 09:22:01;;;;;;;29.23;14.70;;;;;;;3.72;100.00;100917.81;5000045;28;20048;-76
2023/01/14 09:24:26;;;;;;;24.73;14.45;;;;;;;3.11;100.00;100787.69;5000066;28;20037;-75
2023/01/14 09:26:51;;;;;;;24.30;15.98;;;;;;;3.03;100.00;100783.06;5000300;28;20108;-75
2023/01/14 09:29:17;;;;;;;32.97;15.55;;;;;;;3.21;100.00;100814.84;5002379;28;20450;-76
2023/01/14 09:31:42;;;;;;;22.75;14.32;;;;;;;3.52;100.00;100868.69;4997444;28;20391;-74
2023/01/14 09:34:08;;;;;;;22.02;14.27;;;;;;;3.59;100.00;100873.25;4993198;28;20083;-75
2023/01/14 09:36:33;;;;;;;21.80;12.70;;;;;;;4.00;100.00;100930.03;4992099;28;20034;-74
2023/01/14 09:38:59;;;;;;;23.77;13.63;;;;;;;4.05;100.00;100935.41;4995536;28;20050;-75
2023/01/14 09:41:31;;;;;;;24.77;14.38;;;;;;;3.48;100.00;100829.59;4995586;28;20565;-75
2023/01/14 09:43:57;;;;;;;22.15;13.57;;;;;;;4.05;100.00;100938.91;4997388;28;20078;-75
2023/01/14 09:46:27;;;;;;;26.92;13.98;;;;;;;4.01;100.00;100934.41;4997998;28;20209;-75
2023/01/14 09:48:59;;;;;;;21.52;13.68;;;;;;;3.86;100.00;100913.09;4996238;28;20134;-75
2023/01/14 09:52:12;;;;;;;25.23;14.45;;;;;;;4.12;100.00;100943.47;4994423;28;20053;-75
2023/01/14 09:55:03;;;;;;;27.27;16.75;;;;;;;4.19;100.00;100940.25;4995016;28;20149;-74
2023/01/14 09:57:47;;;;;;;22.50;14.43;;;;;;;4.16;100.00;100953.13;4996403;28;20046;-75
2023/01/14 10:00:59;;;;;;;25.10;13.38;;;;;;;3.80;100.00;100942.34;4994318;28;20059;-75
2023/01/14 10:03:42;;;;;;;25.15;14.10;;;;;;;3.05;100.00;100853.97;5008161;28;20848;-75
2023/01/14 10:06:16;;;;;;;21.55;12.60;;;;;;;3.45;100.00;100920.28;4995072;28;20058;-75
2023/01/14 10:09:13;;;;;;;29.92;15.00;;;;;;;3.22;100.00;100867.56;4996245;28;20061;-76
2023/01/14 10:11:42;;;;;;;21.45;12.02;;;;;;;3.26;100.00;100802.91;4994891;28;21209;-75
2023/01/14 10:14:26;;;;;;;21.77;14.00;;;;;;;3.73;100.00;100915.28;4993093;28;20081;-75
2023/01/14 10:16:54;;;;;;;;;;;;;;;3.67;100.00;100917.63;4993189;28;20473;-76
2023/01/14 10:19:27;;;;;;;23.33;15.40;;;;;;;3.07;100.00;100788.41;4999207;28;19925;-76
2023/01/14 10:22:06;;;;;;;22.02;12.45;;;;;;;3.53;100.00;100911.06;4991845;28;20037;-77
2023/01/14 10:24:32;;;;;;;27.52;16.15;;;;;;;3.23;100.00;100800.22;5008930;28;20425;-76
2023/01/14 10:26:57;;;;;;;24.55;14.63;;;;;;;3.99;100.00;100902.31;5009500;28;20046;-77
2023/01/14 10:29:26;;;;;;;20.05;12.02;;;;;;;3.49;100.00;100863.38;4996510;28;20046;-75
2023/01/14 10:32:00;;;;;;;25.20;13.75;;;;;;;3.85;100.00;100909.63;4995937;28;20165;-75
2023/01/14 10:34:26;;;;;;;20.33;12.52;;;;;;;3.33;100.00;100791.03;4995105;28;20863;-78
2023/01/14 10:36:52;;;;;;;24.95;12.63;;;;;;;2.96;100.00;100787.13;4994281;28;20050;-75
2023/01/14 10:39:18;;;;;;;33.78;13.27;;;;;;;3.25;100.00;100784.69;4999532;28;20141;-77
2023/01/14 10:41:49;;;;;;;19.73;12.23;;;;;;;2.88;100.00;100775.56;5001645;28;20461;-76
2023/01/14 10:44:22;;;;;;;23.88;13.63;;;;;;;3.10;100.00;100767.75;4999134;28;20141;-77
2023/01/14 10:46:48;;;;;;;24.20;12.65;;;;;;;3.86;100.00;100902.72;4996894;28;20057;-76
2023/01/14 10:49:45;;;;;;;35.63;11.93;;;;;;;2.98;100.00;100784.59;5001758;28;20049;-76
2023/01/14 10:52:19;;;;;;;22.40;13.32;;;;;;;3.75;100.00;100892.84;5005982;28;20044;-75
2023/01/14 10:55:12;;;;;;;21.52;13.18;;;;;;;3.41;100.00;100893.34;5011406;28;20034;-77
2023/01/14 10:58:00;;;;;;;18.83;11.93;;;;;;;3.69;100.00;100889.16;5008776;28;20129;-75
2023/01/14 11:00:36;;;;;;;23.05;13.63;;;;;;;3.66;100.00;100865.69;5005701;28;20057;-76
2023/01/14 11:03:05;;;;;;;20.40;12.15;;;;;;;3.88;100.00;100899.34;5005164;28;20053;-75
2023/01/14 11:05:37;;;;;;;28.60;17.45;;;;;;;3.97;100.00;100880.63;5014136;28;20049;-76
2023/01/14 11:08:21;;;;;;;22.08;13.57;;;;;;;3.81;100.00;100880.06;5007884;28;20111;-77
2023/01/14 11:10:57;;;;;;;23.63;14.57;;;;;;;3.35;100.00;100784.22;5009627;28;20046;-77
2023/01/14 11:13:33;;;;;;;21.25;14.25;;;;;;;4.13;100.00;100924.44;5013098;28;20397;-76
2023/01/14 11:16:00;;;;;;;23.02;11.13;;;;;;;3.32;100.00;100872.25;5003794;28;20096;-76
2023/01/14 11:18:25;;;;;;;25.58;13.05;;;;;;;3.53;100.00;100924.03;5011889;28;20037;-75
2023/01/14 11:21:12;;;;;;;23.35;13.30;;;;;;;3.55;100.00;100920.66;5003845;28;20049;-75
2023/01/14 11:23:42;;;;;;;18.63;11.68;;;;;;;3.47;100.00;100857.25;5005379;28;20054;-74
2023/01/14 11:26:11;;;;;;;24.08;13.23;;;;;;;3.86;100.00;100913.97;5005909;28;20126;-75
2023/01/14 11:28:42;;;;;;;21.40;12.60;;;;;;;3.30;100.00;100814.25;5010163;28;20034;-75
2023/01/14 11:31:08;;;;;;;29.65;13.07;;;;;;;3.67;100.00;100922.81;5006303;28;20029;-75
2023/01/14 11:33:34;;;;;;;25.52;13.38;;;;;;;3.21;100.00;100782.81;5006812;28;20394;-75
2023/01/14 11:36:02;;;;;;;24.42;14.38;;;;;;;2.80;100.00;100787.38;5001208;28;20409;-74
2023/01/14 11:38:28;;;;;;;22.63;14.30;;;;;;;3.44;100.00;100914.22;5003059;28;20072;-76
2023/01/14 11:43:58;;;;;;;26.27;13.55;;;;;;;3.41;100.00;100918.41;4999473;28;20096;-75
2023/01/14 11:46:23;;;;;;;23.48;13.70;;;;;;;3.57;100.00;100893.06;4997355;28;20453;-74